sensor_id;sensor_type;location;lat;lon;timestamp;pressure;altitude;pressure_sealevel;temperature;humidity
49915;BME280;35806;47.958;13.158;2022-11-15T00:00:19;94659.38;;;9.00;50.03
49915;BME280;35806;47.958;13.158;2022-11-15T00:02:47;94659.42;;;8.15;51.91
49915;BME280;35806;47.958;13.158;2022-11-15T00:05:14;94659.57;;;8.53;51.11
49915;BME280;35806;47.958;13.158;2022-11-15T00:07:42;94661.07;;;8.54;50.99
49915;BME280;35806;47.958;13.158;2022-11-15T00:10:09;94658.78;;;8.26;51.27
49915;BME280;35806;47.958;13.158;2022-11-15T00:12:38;94657.30;;;8.09;51.32
49915;BME280;35806;47.958;13.158;2022-11-15T00:15:06;94654.86;;;8.17;50.85
49915;BME280;35806;47.958;13.158;2022-11-15T00:17:34;94652.53;;;8.43;50.67
49915;BME280;35806;47.958;13.158;2022-11-15T00:20:01;94657.24;;;7.62;51.16
49915;BME280;35806;47.958;13.158;2022-11-15T00:22:31;94659.26;;;7.50;51.27
49915;BME280;35806;47.958;13.158;2022-11-15T00:24:59;94657.99;;;7.69;50.90
49915;BME280;35806;47.958;13.158;2022-11-15T00:27:27;94662.01;;;7.87;51.01
49915;BME280;35806;47.958;13.158;2022-11-15T00:29:54;94662.42;;;7.54;51.60
49915;BME280;35806;47.958;13.158;2022-11-15T00:32:22;94662.43;;;8.06;51.10
49915;BME280;35806;47.958;13.158;2022-11-15T00:34:49;94658.42;;;8.25;50.50
49915;BME280;35806;47.958;13.158;2022-11-15T00:37:16;94664.01;;;7.40;52.17
49915;BME280;35806;47.958;13.158;2022-11-15T00:39:43;94668.10;;;6.11;55.58
49915;BME280;35806;47.958;13.158;2022-11-15T00:42:10;94665.54;;;4.92;60.11
49915;BME280;35806;47.958;13.158;2022-11-15T00:44:37;94667.43;;;6.35;57.57
49915;BME280;35806;47.958;13.158;2022-11-15T00:47:04;94661.10;;;6.59;57.16
49915;BME280;35806;47.958;13.158;2022-11-15T00:49:32;94657.09;;;6.02;59.03
49915;BME280;35806;47.958;13.158;2022-11-15T00:51:59;94651.24;;;7.27;54.98
49915;BME280;35806;47.958;13.158;2022-11-15T00:54:26;94649.25;;;7.52;54.68
49915;BME280;35806;47.958;13.158;2022-11-15T00:56:53;94649.94;;;7.35;54.61
49915;BME280;35806;47.958;13.158;2022-11-15T00:59:20;94651.11;;;7.29;55.29
49915;BME280;35806;47.958;13.158;2022-11-15T01:01:48;94646.89;;;7.40;55.11
49915;BME280;35806;47.958;13.158;2022-11-15T01:04:15;94642.69;;;7.28;54.75
49915;BME280;35806;47.958;13.158;2022-11-15T01:06:42;94640.39;;;7.46;54.78
49915;BME280;35806;47.958;13.158;2022-11-15T01:09:09;94638.23;;;7.05;55.66
49915;BME280;35806;47.958;13.158;2022-11-15T01:11:37;94637.86;;;7.73;54.72
49915;BME280;35806;47.958;13.158;2022-11-15T01:14:04;94636.81;;;7.60;54.45
49915;BME280;35806;47.958;13.158;2022-11-15T01:16:31;94635.22;;;7.98;53.57
49915;BME280;35806;47.958;13.158;2022-11-15T01:18:59;94634.19;;;7.81;53.88
49915;BME280;35806;47.958;13.158;2022-11-15T01:21:27;94631.98;;;7.94;54.09
49915;BME280;35806;47.958;13.158;2022-11-15T01:23:55;94627.41;;;7.78;53.69
49915;BME280;35806;47.958;13.158;2022-11-15T01:26:24;94627.64;;;8.08;53.55
49915;BME280;35806;47.958;13.158;2022-11-15T01:28:51;94626.76;;;8.44;53.09
49915;BME280;35806;47.958;13.158;2022-11-15T01:31:20;94625.27;;;8.01;53.47
49915;BME280;35806;47.958;13.158;2022-11-15T01:33:48;94624.25;;;8.32;53.10
49915;BME280;35806;47.958;13.158;2022-11-15T01:36:17;94626.38;;;7.86;53.67
49915;BME280;35806;47.958;13.158;2022-11-15T01:38:45;94621.74;;;7.54;53.81
49915;BME280;35806;47.958;13.158;2022-11-15T01:41:16;94615.83;;;8.02;52.88
49915;BME280;35806;47.958;13.158;2022-11-15T01:43:44;94608.45;;;8.07;53.09
49915;BME280;35806;47.958;13.158;2022-11-15T01:46:26;94602.14;;;7.55;53.86
49915;BME280;35806;47.958;13.158;2022-11-15T01:48:58;94593.17;;;7.32;53.40
49915;BME280;35806;47.958;13.158;2022-11-15T01:51:30;94589.82;;;8.06;52.63
49915;BME280;35806;47.958;13.158;2022-11-15T01:54:00;94590.85;;;6.97;53.86
49915;BME280;35806;47.958;13.158;2022-11-15T01:56:31;94585.83;;;8.07;52.79
49915;BME280;35806;47.958;13.158;2022-11-15T01:59:02;94584.14;;;8.07;52.44
49915;BME280;35806;47.958;13.158;2022-11-15T02:15:51;94562.22;;;7.07;52.70
49915;BME280;35806;47.958;13.158;2022-11-15T02:18:27;94564.38;;;6.29;54.21
49915;BME280;35806;47.958;13.158;2022-11-15T02:21:07;94562.77;;;7.30;52.86
49915;BME280;35806;47.958;13.158;2022-11-15T02:24:13;94560.27;;;7.30;52.40
49915;BME280;35806;47.958;13.158;2022-11-15T02:27:02;94555.24;;;7.60;50.71
49915;BME280;35806;47.958;13.158;2022-11-15T02:29:53;94554.16;;;7.53;51.01
49915;BME280;35806;47.958;13.158;2022-11-15T02:32:40;94552.83;;;7.01;51.82
49915;BME280;35806;47.958;13.158;2022-11-15T02:35:16;94550.19;;;6.26;52.21
49915;BME280;35806;47.958;13.158;2022-11-15T02:37:52;94543.12;;;6.47;51.54
49915;BME280;35806;47.958;13.158;2022-11-15T02:40:29;94541.99;;;6.36;51.95
49915;BME280;35806;47.958;13.158;2022-11-15T02:43:06;94539.13;;;6.60;51.56
49915;BME280;35806;47.958;13.158;2022-11-15T02:45:39;94541.15;;;6.18;52.45
49915;BME280;35806;47.958;13.158;2022-11-15T02:48:07;94534.50;;;6.19;52.37
49915;BME280;35806;47.958;13.158;2022-11-15T02:50:36;94535.75;;;6.80;51.54
49915;BME280;35806;47.958;13.158;2022-11-15T02:53:04;94535.46;;;6.75;51.88
49915;BME280;35806;47.958;13.158;2022-11-15T02:55:33;94532.75;;;6.53;52.46
49915;BME280;35806;47.958;13.158;2022-11-15T02:58:19;94531.17;;;6.03;53.26
49915;BME280;35806;47.958;13.158;2022-11-15T03:00:57;94526.92;;;6.54;52.70
49915;BME280;35806;47.958;13.158;2022-11-15T03:03:43;94528.09;;;5.91;53.41
49915;BME280;35806;47.958;13.158;2022-11-15T03:06:22;94526.80;;;5.95;52.81
49915;BME280;35806;47.958;13.158;2022-11-15T03:09:01;94519.18;;;6.30;52.58
49915;BME280;35806;47.958;13.158;2022-11-15T03:11:34;94518.46;;;6.26;52.67
49915;BME280;35806;47.958;13.158;2022-11-15T03:14:10;94515.66;;;6.32;52.66
49915;BME280;35806;47.958;13.158;2022-11-15T03:16:44;94515.57;;;6.27;52.46
49915;BME280;35806;47.958;13.158;2022-11-15T03:19:16;94514.14;;;6.37;52.54
49915;BME280;35806;47.958;13.158;2022-11-15T03:21:47;94515.08;;;6.50;52.81
49915;BME280;35806;47.958;13.158;2022-11-15T03:24:19;94510.59;;;6.32;53.23
49915;BME280;35806;47.958;13.158;2022-11-15T03:26:48;94512.64;;;5.67;55.02
49915;BME280;35806;47.958;13.158;2022-11-15T03:29:22;94503.80;;;6.41;53.03
49915;BME280;35806;47.958;13.158;2022-11-15T03:31:53;94502.81;;;5.95;52.93
49915;BME280;35806;47.958;13.158;2022-11-15T03:34:28;94502.10;;;6.21;52.78
49915;BME280;35806;47.958;13.158;2022-11-15T03:36:57;94500.47;;;6.24;52.30
49915;BME280;35806;47.958;13.158;2022-11-15T03:39:25;94498.91;;;6.08;52.29
49915;BME280;35806;47.958;13.158;2022-11-15T03:42:01;94501.50;;;6.09;52.34
49915;BME280;35806;47.958;13.158;2022-11-15T03:44:38;94503.36;;;5.94;52.69
49915;BME280;35806;47.958;13.158;2022-11-15T03:47:11;94502.47;;;5.50;53.04
49915;BME280;35806;47.958;13.158;2022-11-15T03:49:44;94496.60;;;5.62;53.13
49915;BME280;35806;47.958;13.158;2022-11-15T03:52:12;94495.79;;;5.85;52.72
49915;BME280;35806;47.958;13.158;2022-11-15T03:54:49;94494.68;;;5.78;52.72
49915;BME280;35806;47.958;13.158;2022-11-15T03:57:17;94490.63;;;6.02;52.74
49915;BME280;35806;47.958;13.158;2022-11-15T03:59:44;94492.50;;;5.95;52.80
49915;BME280;35806;47.958;13.158;2022-11-15T04:02:12;94490.17;;;6.21;52.95
49915;BME280;35806;47.958;13.158;2022-11-15T04:04:40;94486.89;;;5.51;52.88
49915;BME280;35806;47.958;13.158;2022-11-15T04:07:07;94486.22;;;5.61;53.79
49915;BME280;35806;47.958;13.158;2022-11-15T04:09:34;94479.01;;;5.58;54.81
49915;BME280;35806;47.958;13.158;2022-11-15T04:12:00;94478.81;;;5.56;53.71
49915;BME280;35806;47.958;13.158;2022-11-15T04:14:27;94476.15;;;5.72;53.01
49915;BME280;35806;47.958;13.158;2022-11-15T04:16:54;94472.61;;;5.62;53.29
49915;BME280;35806;47.958;13.158;2022-11-15T04:19:22;94471.80;;;6.26;52.66
49915;BME280;35806;47.958;13.158;2022-11-15T04:21:49;94471.58;;;5.91;52.88
49915;BME280;35806;47.958;13.158;2022-11-15T04:24:15;94469.15;;;5.32;52.97
49915;BME280;35806;47.958;13.158;2022-11-15T04:26:43;94466.09;;;6.31;52.64
49915;BME280;35806;47.958;13.158;2022-11-15T04:29:10;94462.96;;;5.93;52.11
49915;BME280;35806;47.958;13.158;2022-11-15T04:31:36;94459.23;;;5.92;51.92
49915;BME280;35806;47.958;13.158;2022-11-15T04:34:03;94458.67;;;5.45;52.86
49915;BME280;35806;47.958;13.158;2022-11-15T04:36:31;94454.08;;;6.31;52.88
49915;BME280;35806;47.958;13.158;2022-11-15T04:38:59;94451.30;;;4.92;53.78
49915;BME280;35806;47.958;13.158;2022-11-15T04:41:26;94453.64;;;4.42;55.43
49915;BME280;35806;47.958;13.158;2022-11-15T04:43:53;94447.04;;;5.47;53.94
49915;BME280;35806;47.958;13.158;2022-11-15T04:46:21;94447.29;;;5.48;53.47
49915;BME280;35806;47.958;13.158;2022-11-15T04:48:48;94444.85;;;5.54;53.29
49915;BME280;35806;47.958;13.158;2022-11-15T04:51:16;94441.11;;;6.29;52.05
49915;BME280;35806;47.958;13.158;2022-11-15T04:53:43;94441.01;;;5.47;52.50
49915;BME280;35806;47.958;13.158;2022-11-15T04:56:11;94442.71;;;5.22;53.44
49915;BME280;35806;47.958;13.158;2022-11-15T04:58:38;94441.32;;;5.82;53.30
49915;BME280;35806;47.958;13.158;2022-11-15T05:01:07;94435.53;;;5.63;53.79
49915;BME280;35806;47.958;13.158;2022-11-15T05:03:34;94430.66;;;5.37;53.26
49915;BME280;35806;47.958;13.158;2022-11-15T05:06:02;94432.16;;;5.42;53.67
49915;BME280;35806;47.958;13.158;2022-11-15T05:08:29;94426.26;;;5.99;53.81
49915;BME280;35806;47.958;13.158;2022-11-15T05:10:56;94428.16;;;5.87;53.35
49915;BME280;35806;47.958;13.158;2022-11-15T05:13:23;94428.70;;;5.45;53.71
49915;BME280;35806;47.958;13.158;2022-11-15T05:15:50;94431.44;;;5.60;54.29
49915;BME280;35806;47.958;13.158;2022-11-15T05:18:18;94430.63;;;5.72;54.35
49915;BME280;35806;47.958;13.158;2022-11-15T05:20:45;94429.35;;;5.34;54.01
49915;BME280;35806;47.958;13.158;2022-11-15T05:23:13;94429.52;;;5.45;54.43
49915;BME280;35806;47.958;13.158;2022-11-15T05:25:40;94427.84;;;5.03;54.03
49915;BME280;35806;47.958;13.158;2022-11-15T05:28:06;94426.94;;;5.08;54.06
49915;BME280;35806;47.958;13.158;2022-11-15T05:30:34;94427.33;;;5.63;52.38
49915;BME280;35806;47.958;13.158;2022-11-15T05:33:01;94426.42;;;5.16;52.64
49915;BME280;35806;47.958;13.158;2022-11-15T05:35:31;94421.07;;;5.53;52.92
49915;BME280;35806;47.958;13.158;2022-11-15T05:38:01;94417.39;;;5.65;53.30
49915;BME280;35806;47.958;13.158;2022-11-15T05:40:29;94409.08;;;5.79;52.90
49915;BME280;35806;47.958;13.158;2022-11-15T05:42:57;94410.30;;;5.45;52.98
49915;BME280;35806;47.958;13.158;2022-11-15T05:45:27;94408.93;;;4.81;53.72
49915;BME280;35806;47.958;13.158;2022-11-15T05:47:57;94410.24;;;4.65;53.93
49915;BME280;35806;47.958;13.158;2022-11-15T05:50:47;94407.94;;;5.65;53.14
49915;BME280;35806;47.958;13.158;2022-11-15T05:53:17;94406.64;;;5.04;53.98
49915;BME280;35806;47.958;13.158;2022-11-15T05:55:46;94403.82;;;4.97;53.80
49915;BME280;35806;47.958;13.158;2022-11-15T05:58:14;94400.84;;;5.02;53.50
49915;BME280;35806;47.958;13.158;2022-11-15T06:00:42;94395.49;;;4.91;53.10
49915;BME280;35806;47.958;13.158;2022-11-15T06:03:09;94394.73;;;5.30;51.72
49915;BME280;35806;47.958;13.158;2022-11-15T06:05:37;94396.29;;;4.83;52.87
49915;BME280;35806;47.958;13.158;2022-11-15T06:08:05;94394.16;;;4.87;53.66
49915;BME280;35806;47.958;13.158;2022-11-15T06:10:33;94386.52;;;4.62;53.63
49915;BME280;35806;47.958;13.158;2022-11-15T06:13:01;94383.32;;;5.01;53.55
49915;BME280;35806;47.958;13.158;2022-11-15T06:15:28;94385.88;;;5.10;53.18
49915;BME280;35806;47.958;13.158;2022-11-15T06:17:56;94386.88;;;4.76;53.67
49915;BME280;35806;47.958;13.158;2022-11-15T06:20:24;94386.52;;;4.84;53.62
49915;BME280;35806;47.958;13.158;2022-11-15T06:22:56;94386.27;;;4.56;53.94
49915;BME280;35806;47.958;13.158;2022-11-15T06:25:23;94388.40;;;5.03;53.69
49915;BME280;35806;47.958;13.158;2022-11-15T06:27:51;94391.93;;;5.25;53.24
49915;BME280;35806;47.958;13.158;2022-11-15T06:30:19;94394.90;;;5.45;53.45
49915;BME280;35806;47.958;13.158;2022-11-15T06:32:46;94396.85;;;5.46;52.79
49915;BME280;35806;47.958;13.158;2022-11-15T06:35:14;94397.18;;;5.04;53.51
49915;BME280;35806;47.958;13.158;2022-11-15T06:37:41;94398.87;;;5.34;53.25
49915;BME280;35806;47.958;13.158;2022-11-15T06:40:10;94399.44;;;5.17;53.74
49915;BME280;35806;47.958;13.158;2022-11-15T06:42:42;94399.46;;;5.46;52.96
49915;BME280;35806;47.958;13.158;2022-11-15T06:45:10;94400.65;;;5.03;53.78
49915;BME280;35806;47.958;13.158;2022-11-15T06:47:44;94399.05;;;5.22;53.13
49915;BME280;35806;47.958;13.158;2022-11-15T06:50:11;94401.45;;;5.53;53.58
49915;BME280;35806;47.958;13.158;2022-11-15T06:52:39;94403.39;;;4.85;55.40
49915;BME280;35806;47.958;13.158;2022-11-15T06:55:08;94404.37;;;5.24;56.37
49915;BME280;35806;47.958;13.158;2022-11-15T06:57:36;94408.57;;;4.35;58.93
49915;BME280;35806;47.958;13.158;2022-11-15T07:00:09;94409.17;;;5.77;55.30
49915;BME280;35806;47.958;13.158;2022-11-15T07:02:42;94410.20;;;6.28;54.52
49915;BME280;35806;47.958;13.158;2022-11-15T07:05:10;94403.49;;;6.72;53.15
49915;BME280;35806;47.958;13.158;2022-11-15T07:07:38;94404.81;;;5.12;58.27
49915;BME280;35806;47.958;13.158;2022-11-15T07:10:07;94395.84;;;5.52;57.78
49915;BME280;35806;47.958;13.158;2022-11-15T07:12:35;94386.72;;;6.61;56.11
49915;BME280;35806;47.958;13.158;2022-11-15T07:15:01;94385.75;;;6.54;55.54
49915;BME280;35806;47.958;13.158;2022-11-15T07:17:29;94380.46;;;7.14;54.73
49915;BME280;35806;47.958;13.158;2022-11-15T07:19:56;94383.06;;;7.21;54.36
49915;BME280;35806;47.958;13.158;2022-11-15T07:22:24;94384.22;;;7.39;54.05
49915;BME280;35806;47.958;13.158;2022-11-15T07:24:51;94382.68;;;7.29;53.91
49915;BME280;35806;47.958;13.158;2022-11-15T07:27:18;94380.48;;;7.34;53.36
49915;BME280;35806;47.958;13.158;2022-11-15T07:29:46;94380.34;;;8.07;53.52
49915;BME280;35806;47.958;13.158;2022-11-15T07:32:13;94380.66;;;7.72;54.07
49915;BME280;35806;47.958;13.158;2022-11-15T07:34:40;94381.85;;;7.75;53.98
49915;BME280;35806;47.958;13.158;2022-11-15T07:37:08;94379.86;;;7.98;53.47
49915;BME280;35806;47.958;13.158;2022-11-15T07:39:36;94378.14;;;8.15;53.51
49915;BME280;35806;47.958;13.158;2022-11-15T07:42:03;94372.84;;;8.33;53.37
49915;BME280;35806;47.958;13.158;2022-11-15T07:44:30;94370.84;;;8.54;53.53
49915;BME280;35806;47.958;13.158;2022-11-15T07:46:57;94371.24;;;8.79;53.41
49915;BME280;35806;47.958;13.158;2022-11-15T07:49:25;94368.44;;;8.90;52.61
49915;BME280;35806;47.958;13.158;2022-11-15T07:51:52;94366.93;;;9.33;52.81
49915;BME280;35806;47.958;13.158;2022-11-15T07:54:20;94365.25;;;8.96;52.73
49915;BME280;35806;47.958;13.158;2022-11-15T07:56:47;94363.72;;;8.87;52.96
49915;BME280;35806;47.958;13.158;2022-11-15T07:59:15;94364.82;;;9.29;52.54
49915;BME280;35806;47.958;13.158;2022-11-15T08:02:02;94361.35;;;10.22;51.53
49915;BME280;35806;47.958;13.158;2022-11-15T08:04:30;94359.58;;;9.86;51.72
49915;BME280;35806;47.958;13.158;2022-11-15T08:06:57;94361.64;;;9.68;51.31
49915;BME280;35806;47.958;13.158;2022-11-15T08:09:25;94363.04;;;9.83;50.54
49915;BME280;35806;47.958;13.158;2022-11-15T08:11:53;94362.96;;;9.68;50.53
49915;BME280;35806;47.958;13.158;2022-11-15T08:14:20;94358.79;;;10.28;50.07
49915;BME280;35806;47.958;13.158;2022-11-15T08:16:48;94353.74;;;10.51;49.84
49915;BME280;35806;47.958;13.158;2022-11-15T08:19:15;94354.31;;;10.45;49.69
49915;BME280;35806;47.958;13.158;2022-11-15T08:21:43;94354.87;;;10.31;49.75
49915;BME280;35806;47.958;13.158;2022-11-15T08:24:10;94355.26;;;10.96;49.26
49915;BME280;35806;47.958;13.158;2022-11-15T08:26:38;94353.79;;;10.59;49.02
49915;BME280;35806;47.958;13.158;2022-11-15T08:29:06;94353.11;;;9.96;49.70
49915;BME280;35806;47.958;13.158;2022-11-15T08:31:34;94350.64;;;9.43;50.52
49915;BME280;35806;47.958;13.158;2022-11-15T08:34:02;94349.67;;;9.27;51.55
49915;BME280;35806;47.958;13.158;2022-11-15T08:36:29;94348.36;;;9.65;51.22
49915;BME280;35806;47.958;13.158;2022-11-15T08:38:57;94344.39;;;9.26;52.23
49915;BME280;35806;47.958;13.158;2022-11-15T08:41:27;94337.42;;;9.10;52.13
49915;BME280;35806;47.958;13.158;2022-11-15T08:43:54;94335.77;;;9.55;51.53
49915;BME280;35806;47.958;13.158;2022-11-15T08:46:22;94330.54;;;9.06;52.49
49915;BME280;35806;47.958;13.158;2022-11-15T08:48:50;94326.17;;;9.10;52.36
49915;BME280;35806;47.958;13.158;2022-11-15T08:51:17;94319.12;;;10.05;51.91
49915;BME280;35806;47.958;13.158;2022-11-15T08:53:44;94316.15;;;10.08;51.89
49915;BME280;35806;47.958;13.158;2022-11-15T08:56:14;94313.60;;;10.63;50.76
49915;BME280;35806;47.958;13.158;2022-11-15T08:58:42;94315.32;;;9.76;51.65
49915;BME280;35806;47.958;13.158;2022-11-15T09:01:16;94322.13;;;9.59;52.09
49915;BME280;35806;47.958;13.158;2022-11-15T09:03:43;94320.13;;;9.33;52.72
49915;BME280;35806;47.958;13.158;2022-11-15T09:06:11;94316.97;;;9.89;52.39
49915;BME280;35806;47.958;13.158;2022-11-15T09:08:39;94317.94;;;9.69;52.61
49915;BME280;35806;47.958;13.158;2022-11-15T09:11:08;94317.58;;;9.81;52.31
49915;BME280;35806;47.958;13.158;2022-11-15T09:13:36;94317.94;;;9.68;52.91
49915;BME280;35806;47.958;13.158;2022-11-15T09:16:04;94315.36;;;9.64;52.05
49915;BME280;35806;47.958;13.158;2022-11-15T09:18:32;94319.22;;;10.06;51.64
49915;BME280;35806;47.958;13.158;2022-11-15T09:21:00;94317.68;;;10.78;50.82
49915;BME280;35806;47.958;13.158;2022-11-15T09:23:28;94318.10;;;10.86;50.94
49915;BME280;35806;47.958;13.158;2022-11-15T09:25:59;94319.41;;;11.82;48.55
49915;BME280;35806;47.958;13.158;2022-11-15T09:28:27;94314.93;;;12.30;46.57
49915;BME280;35806;47.958;13.158;2022-11-15T09:30:57;94316.45;;;11.58;48.41
49915;BME280;35806;47.958;13.158;2022-11-15T09:33:25;94312.88;;;11.40;48.21
49915;BME280;35806;47.958;13.158;2022-11-15T09:35:53;94310.69;;;11.96;47.47
49915;BME280;35806;47.958;13.158;2022-11-15T09:38:20;94310.29;;;11.71;47.25
49915;BME280;35806;47.958;13.158;2022-11-15T09:40:50;94308.08;;;11.83;46.48
49915;BME280;35806;47.958;13.158;2022-11-15T09:43:31;94304.46;;;12.36;46.14
49915;BME280;35806;47.958;13.158;2022-11-15T09:46:08;94301.91;;;11.11;47.58
49915;BME280;35806;47.958;13.158;2022-11-15T09:48:48;94297.92;;;11.75;47.37
49915;BME280;35806;47.958;13.158;2022-11-15T09:51:24;94294.38;;;11.46;48.87
49915;BME280;35806;47.958;13.158;2022-11-15T09:53:58;94288.21;;;11.26;48.57
49915;BME280;35806;47.958;13.158;2022-11-15T09:56:30;94283.39;;;12.13;48.04
49915;BME280;35806;47.958;13.158;2022-11-15T09:59:15;94278.65;;;11.78;46.94
49915;BME280;35806;47.958;13.158;2022-11-15T10:01:52;94279.15;;;11.54;46.52
49915;BME280;35806;47.958;13.158;2022-11-15T10:04:22;94273.86;;;10.90;45.65
49915;BME280;35806;47.958;13.158;2022-11-15T10:06:58;94268.54;;;10.54;46.48
49915;BME280;35806;47.958;13.158;2022-11-15T10:09:32;94264.40;;;10.90;46.51
49915;BME280;35806;47.958;13.158;2022-11-15T10:12:03;94257.65;;;11.64;45.47
49915;BME280;35806;47.958;13.158;2022-11-15T10:14:31;94249.56;;;11.21;46.54
49915;BME280;35806;47.958;13.158;2022-11-15T10:17:25;94244.63;;;10.17;48.75
49915;BME280;35806;47.958;13.158;2022-11-15T10:20:05;94236.55;;;10.24;49.44
49915;BME280;35806;47.958;13.158;2022-11-15T10:22:40;94225.94;;;10.38;49.33
49915;BME280;35806;47.958;13.158;2022-11-15T10:25:18;94221.42;;;10.55;50.04
49915;BME280;35806;47.958;13.158;2022-11-15T10:27:53;94215.34;;;10.42;48.62
49915;BME280;35806;47.958;13.158;2022-11-15T10:30:20;94212.90;;;10.22;49.24
49915;BME280;35806;47.958;13.158;2022-11-15T10:32:49;94211.30;;;10.42;49.03
49915;BME280;35806;47.958;13.158;2022-11-15T10:35:20;94207.42;;;10.41;49.01
49915;BME280;35806;47.958;13.158;2022-11-15T10:37:47;94203.46;;;11.14;48.25
49915;BME280;35806;47.958;13.158;2022-11-15T10:40:19;94201.84;;;10.78;48.07
49915;BME280;35806;47.958;13.158;2022-11-15T10:42:48;94194.43;;;10.27;50.93
49915;BME280;35806;47.958;13.158;2022-11-15T10:45:26;94191.54;;;10.46;49.56
49915;BME280;35806;47.958;13.158;2022-11-15T10:48:21;94189.19;;;10.66;50.80
49915;BME280;35806;47.958;13.158;2022-11-15T10:50:50;94187.48;;;10.76;49.93
49915;BME280;35806;47.958;13.158;2022-11-15T10:53:27;94182.27;;;10.31;49.99
49915;BME280;35806;47.958;13.158;2022-11-15T10:55:57;94181.24;;;10.04;50.89
49915;BME280;35806;47.958;13.158;2022-11-15T10:58:34;94177.82;;;10.57;50.52
49915;BME280;35806;47.958;13.158;2022-11-15T11:01:12;94182.48;;;10.58;49.94
49915;BME280;35806;47.958;13.158;2022-11-15T11:03:41;94178.33;;;11.14;49.66
49915;BME280;35806;47.958;13.158;2022-11-15T11:06:12;94173.15;;;11.49;46.70
49915;BME280;35806;47.958;13.158;2022-11-15T11:08:40;94165.45;;;11.34;46.35
49915;BME280;35806;47.958;13.158;2022-11-15T11:11:19;94162.22;;;11.34;46.49
49915;BME280;35806;47.958;13.158;2022-11-15T11:13:47;94158.50;;;11.15;46.11
49915;BME280;35806;47.958;13.158;2022-11-15T11:16:35;94155.82;;;11.81;44.76
49915;BME280;35806;47.958;13.158;2022-11-15T11:19:18;94152.59;;;11.90;45.10
49915;BME280;35806;47.958;13.158;2022-11-15T11:21:55;94146.94;;;12.12;44.26
49915;BME280;35806;47.958;13.158;2022-11-15T11:24:32;94141.95;;;11.82;43.84
49915;BME280;35806;47.958;13.158;2022-11-15T11:27:13;94133.18;;;11.77;44.16
49915;BME280;35806;47.958;13.158;2022-11-15T11:29:53;94123.57;;;12.27;43.38
49915;BME280;35806;47.958;13.158;2022-11-15T11:32:36;94115.64;;;13.32;41.28
49915;BME280;35806;47.958;13.158;2022-11-15T11:35:13;94106.26;;;14.20;40.41
49915;BME280;35806;47.958;13.158;2022-11-15T11:37:47;94106.61;;;14.71;40.72
49915;BME280;35806;47.958;13.158;2022-11-15T11:40:28;94107.81;;;15.52;37.26
49915;BME280;35806;47.958;13.158;2022-11-15T11:43:00;94110.46;;;15.53;37.21
49915;BME280;35806;47.958;13.158;2022-11-15T11:45:51;94108.81;;;16.14;37.32
49915;BME280;35806;47.958;13.158;2022-11-15T11:48:37;94101.72;;;15.42;37.97
49915;BME280;35806;47.958;13.158;2022-11-15T11:51:13;94097.62;;;15.59;37.90
49915;BME280;35806;47.958;13.158;2022-11-15T11:53:47;94093.97;;;15.53;37.28
49915;BME280;35806;47.958;13.158;2022-11-15T11:56:24;94085.91;;;15.02;37.99
49915;BME280;35806;47.958;13.158;2022-11-15T11:58:55;94082.86;;;15.59;37.60
49915;BME280;35806;47.958;13.158;2022-11-15T12:01:25;94079.07;;;16.51;37.47
49915;BME280;35806;47.958;13.158;2022-11-15T12:03:59;94079.83;;;16.54;35.21
49915;BME280;35806;47.958;13.158;2022-11-15T12:06:32;94078.77;;;16.99;34.56
49915;BME280;35806;47.958;13.158;2022-11-15T12:09:04;94067.93;;;16.93;34.66
49915;BME280;35806;47.958;13.158;2022-11-15T12:11:43;94068.29;;;16.30;34.75
49915;BME280;35806;47.958;13.158;2022-11-15T12:14:26;94066.11;;;17.69;33.74
49915;BME280;35806;47.958;13.158;2022-11-15T12:17:07;94061.84;;;17.77;33.12
49915;BME280;35806;47.958;13.158;2022-11-15T12:19:35;94061.63;;;18.21;31.71
49915;BME280;35806;47.958;13.158;2022-11-15T12:22:06;94057.35;;;17.50;32.23
49915;BME280;35806;47.958;13.158;2022-11-15T12:24:40;94056.36;;;17.42;32.59
49915;BME280;35806;47.958;13.158;2022-11-15T12:27:15;94056.89;;;18.18;31.75
49915;BME280;35806;47.958;13.158;2022-11-15T12:29:48;94055.15;;;17.68;32.42
49915;BME280;35806;47.958;13.158;2022-11-15T12:32:24;94051.57;;;17.97;31.54
49915;BME280;35806;47.958;13.158;2022-11-15T12:34:53;94047.15;;;18.31;31.89
49915;BME280;35806;47.958;13.158;2022-11-15T12:37:49;94047.70;;;16.96;32.21
49915;BME280;35806;47.958;13.158;2022-11-15T12:40:27;94045.54;;;17.23;32.40
49915;BME280;35806;47.958;13.158;2022-11-15T12:43:01;94036.02;;;17.67;32.76
49915;BME280;35806;47.958;13.158;2022-11-15T12:45:31;94033.75;;;17.09;32.66
49915;BME280;35806;47.958;13.158;2022-11-15T12:48:48;94031.12;;;15.09;34.89
49915;BME280;35806;47.958;13.158;2022-11-15T12:51:16;94025.64;;;13.68;36.66
49915;BME280;35806;47.958;13.158;2022-11-15T12:53:43;94020.54;;;13.48;37.99
49915;BME280;35806;47.958;13.158;2022-11-15T12:56:21;94021.35;;;12.39;39.67
49915;BME280;35806;47.958;13.158;2022-11-15T12:58:51;94021.88;;;12.09;41.13
49915;BME280;35806;47.958;13.158;2022-11-15T13:02:27;94020.78;;;11.59;41.79
49915;BME280;35806;47.958;13.158;2022-11-15T13:05:59;94018.67;;;11.19;43.59
49915;BME280;35806;47.958;13.158;2022-11-15T13:09:00;94017.67;;;11.08;44.13
49915;BME280;35806;47.958;13.158;2022-11-15T13:11:59;94015.98;;;10.75;44.44
49915;BME280;35806;47.958;13.158;2022-11-15T13:14:46;94014.11;;;12.15;42.44
49915;BME280;35806;47.958;13.158;2022-11-15T13:17:45;94008.25;;;11.77;43.04
49915;BME280;35806;47.958;13.158;2022-11-15T13:20:22;94007.69;;;11.30;43.38
49915;BME280;35806;47.958;13.158;2022-11-15T13:22:51;94003.07;;;10.82;44.05
49915;BME280;35806;47.958;13.158;2022-11-15T13:26:02;93994.46;;;11.74;42.74
49915;BME280;35806;47.958;13.158;2022-11-15T13:28:34;93995.28;;;11.49;42.26
49915;BME280;35806;47.958;13.158;2022-11-15T13:31:19;93990.46;;;11.68;42.27
49915;BME280;35806;47.958;13.158;2022-11-15T13:33:48;93993.16;;;11.13;43.70
49915;BME280;35806;47.958;13.158;2022-11-15T13:36:20;93991.04;;;10.77;43.96